Terminal Aerodrome Forecast
Issued by NWS Charleston, WV

Current Version | Previous Version | Graphics & Text | Print | Product List | Glossary On
Versions: 1 2 3 4 5 6 7 8 9 10 11 12 13 14 15 16 17 18 19 20 21 22 23 24 25 26
000
FTUS41 KRLX 291006 AAA
TAFBKW
TAF AMD
KBKW 291006Z 2910/3006 VRB03KT P6SM SCT001
      TEMPO 2910/2912 3/4SM BR VV001
     FM291300 VRB03KT P6SM SKC
     FM291600 02005KT P6SM SCT040
     FM300000 VRB03KT P6SM SCT050 BKN100
     FM300200 00000KT P6SM SCT250=

USA.gov is the U.S. government's official web portal to all federal, state and local government web resources and services.